Terminal Aerodrome Forecast
Issued by NWS

Home | Current Version | Previous Version | Text Only | Print | Product List | Glossary Off
Versions: 1 2 3 4 5 6 7 8 9 10 11 12 13 14 15 16 17 18

013
FTUS43 KIWX 231722
TAFSBN
TAF
KSBN 231722Z 2318/2418 VRB04KT P6SM SCT030
     FM240100 VRB03KT P6SM BKN250
     FM240600 VRB03KT P6SM VCTS BKN250CB
     FM241200 19008KT P6SM BKN150=

USA.gov is the U.S. government's official web portal to all federal, state and local government web resources and services.